createdAt,value
2019-03-16T00:00:32.223Z,6.27
2019-03-16T00:02:59.555Z,6.47
2019-03-16T00:05:26.889Z,6.47
2019-03-16T00:07:54.218Z,6.63
2019-03-16T00:10:21.570Z,5.87
2019-03-16T00:12:48.896Z,6.50
2019-03-16T00:15:16.210Z,6.70
2019-03-16T00:17:43.555Z,6.10
2019-03-16T00:20:11.035Z,6.43
2019-03-16T00:22:38.383Z,6.27
2019-03-16T00:25:05.819Z,6.20
2019-03-16T00:27:33.145Z,5.40
2019-03-16T00:30:00.451Z,5.60
2019-03-16T00:32:27.775Z,5.93
2019-03-16T00:34:55.083Z,5.90
2019-03-16T00:37:22.448Z,5.40
2019-03-16T00:39:49.813Z,6.17
2019-03-16T00:42:17.335Z,6.07
2019-03-16T00:44:44.691Z,5.67
2019-03-16T00:47:12.000Z,6.73
2019-03-16T00:49:39.277Z,6.07
2019-03-16T00:52:06.587Z,5.60
2019-03-16T00:54:33.915Z,6.20
2019-03-16T00:57:01.215Z,5.30
2019-03-16T00:59:28.595Z,5.90
2019-03-16T01:01:55.860Z,6.47
2019-03-16T01:04:23.181Z,6.40
2019-03-16T01:06:50.476Z,6.90
2019-03-16T01:09:17.800Z,6.70
2019-03-16T01:11:45.095Z,6.10
2019-03-16T01:14:12.387Z,6.47
2019-03-16T01:16:39.839Z,5.77
2019-03-16T01:19:07.155Z,5.83
2019-03-16T01:21:34.497Z,6.20
2019-03-16T01:24:01.793Z,7.13
2019-03-16T01:26:29.158Z,7.27
2019-03-16T01:28:56.476Z,6.90
2019-03-16T01:31:23.776Z,6.63
2019-03-16T01:33:51.180Z,6.77
2019-03-16T01:36:18.523Z,7.37
2019-03-16T01:38:45.827Z,8.47
2019-03-16T01:41:13.275Z,7.93
2019-03-16T01:43:40.569Z,7.63
2019-03-16T01:46:07.903Z,8.63
2019-03-16T01:48:35.203Z,12.10
2019-03-16T01:51:02.503Z,13.70
2019-03-16T01:53:29.818Z,13.17
2019-03-16T01:55:57.090Z,12.67
2019-03-16T01:58:24.373Z,11.10
2019-03-16T02:00:51.709Z,10.33
2019-03-16T02:03:18.989Z,9.97
2019-03-16T02:05:46.271Z,9.93
2019-03-16T02:08:13.595Z,13.13
2019-03-16T02:10:40.915Z,15.83
2019-03-16T02:13:08.226Z,17.97
2019-03-16T02:15:35.519Z,17.43
2019-03-16T02:18:02.855Z,17.60
2019-03-16T02:20:30.129Z,17.70
2019-03-16T02:22:57.453Z,18.23
2019-03-16T02:25:24.758Z,20.10
2019-03-16T02:27:52.088Z,18.07
2019-03-16T02:30:19.384Z,17.37
2019-03-16T02:32:46.732Z,17.50
2019-03-16T02:35:14.078Z,16.70
2019-03-16T02:37:41.356Z,13.03
2019-03-16T02:40:08.687Z,11.70
2019-03-16T02:42:35.975Z,15.27
2019-03-16T02:45:03.975Z,17.87
2019-03-16T02:47:31.291Z,19.87
2019-03-16T02:49:58.610Z,18.20
2019-03-16T02:52:25.945Z,16.50
2019-03-16T02:54:53.308Z,17.80
2019-03-16T02:57:20.624Z,18.67
2019-03-16T02:59:47.977Z,18.30
2019-03-16T03:02:15.302Z,16.70
2019-03-16T03:04:45.989Z,18.27
2019-03-16T03:07:11.868Z,18.77
2019-03-16T03:09:39.215Z,23.37
2019-03-16T03:12:06.510Z,22.17
2019-03-16T03:14:33.850Z,22.50
2019-03-16T03:17:01.177Z,22.77
2019-03-16T03:19:28.508Z,22.97
2019-03-16T03:21:55.838Z,23.03
2019-03-16T03:24:23.225Z,22.00
2019-03-16T03:26:50.628Z,22.33
2019-03-16T03:29:17.983Z,18.73
2019-03-16T03:31:45.330Z,23.07
2019-03-16T03:34:12.635Z,21.23
2019-03-16T03:36:39.998Z,21.40
2019-03-16T03:39:07.863Z,21.73
2019-03-16T03:41:35.197Z,21.17
2019-03-16T03:44:02.601Z,21.30
2019-03-16T03:46:32.256Z,20.63
2019-03-16T03:48:59.189Z,19.83
2019-03-16T03:51:26.532Z,19.50
2019-03-16T03:53:53.922Z,19.00
2019-03-16T03:56:21.235Z,19.73
2019-03-16T03:58:48.548Z,18.27
2019-03-16T04:01:15.874Z,18.87
2019-03-16T04:03:43.223Z,15.47
2019-03-16T04:06:10.557Z,15.60
2019-03-16T04:08:37.955Z,16.33
2019-03-16T04:11:05.276Z,17.13
2019-03-16T04:13:32.569Z,18.00
2019-03-16T04:15:59.956Z,19.13
2019-03-16T04:18:27.276Z,19.47
2019-03-16T04:20:54.580Z,21.20
2019-03-16T04:23:21.917Z,21.83
2019-03-16T04:25:49.212Z,21.70
2019-03-16T04:28:16.545Z,18.43
2019-03-16T04:30:43.876Z,14.77
2019-03-16T04:33:11.176Z,18.53
2019-03-16T04:35:38.497Z,21.40
2019-03-16T04:38:05.783Z,22.30
2019-03-16T04:40:33.084Z,21.27
2019-03-16T04:43:00.445Z,21.20
2019-03-16T04:45:27.803Z,20.57
2019-03-16T04:47:55.202Z,19.80
2019-03-16T04:50:22.491Z,20.13
2019-03-16T04:52:51.135Z,19.20
2019-03-16T04:55:18.619Z,17.53
2019-03-16T04:57:45.900Z,16.43
2019-03-16T05:00:13.552Z,16.53
2019-03-16T05:02:40.897Z,18.83
2019-03-16T05:05:08.299Z,23.00
2019-03-16T05:07:35.607Z,22.00
2019-03-16T05:10:02.976Z,21.00
2019-03-16T05:12:30.315Z,20.07
2019-03-16T05:14:57.676Z,21.43
2019-03-16T05:17:25.035Z,20.80
2019-03-16T05:19:52.315Z,19.33
2019-03-16T05:22:19.615Z,22.10
2019-03-16T05:24:46.969Z,21.40
2019-03-16T05:27:14.258Z,19.37
2019-03-16T05:29:41.616Z,21.40
2019-03-16T05:32:08.959Z,20.97
2019-03-16T05:34:36.270Z,21.90
2019-03-16T05:37:03.616Z,23.30
2019-03-16T05:39:31.264Z,21.63
2019-03-16T05:41:58.556Z,21.07
2019-03-16T05:44:25.888Z,21.00
2019-03-16T05:46:53.249Z,21.33
2019-03-16T05:49:20.540Z,19.60
2019-03-16T05:51:47.858Z,23.03
2019-03-16T05:54:15.195Z,22.73
2019-03-16T05:56:42.490Z,22.70
2019-03-16T05:59:09.814Z,22.77
2019-03-16T06:01:37.155Z,21.87
2019-03-16T06:04:04.496Z,21.87
2019-03-16T06:06:31.814Z,22.27
2019-03-16T06:08:59.175Z,21.47
2019-03-16T06:11:26.548Z,21.30
2019-03-16T06:13:53.877Z,22.03
2019-03-16T06:16:21.215Z,21.63
2019-03-16T06:18:48.491Z,21.17
2019-03-16T06:21:15.816Z,21.40
2019-03-16T06:23:43.103Z,22.40
2019-03-16T06:26:10.416Z,22.23
2019-03-16T06:28:37.802Z,23.77
2019-03-16T06:31:05.080Z,24.20
2019-03-16T06:33:32.415Z,23.93
2019-03-16T06:35:59.735Z,22.83
2019-03-16T06:38:27.027Z,22.90
2019-03-16T06:40:54.367Z,24.10
2019-03-16T06:43:21.811Z,22.70
2019-03-16T06:45:49.090Z,22.60
2019-03-16T06:48:16.977Z,21.07
2019-03-16T06:50:44.345Z,20.30
2019-03-16T06:53:11.703Z,22.77
2019-03-16T06:55:39.056Z,21.43
2019-03-16T06:58:06.403Z,20.07
2019-03-16T07:00:33.763Z,20.97
2019-03-16T07:03:01.156Z,20.37
2019-03-16T07:05:38.326Z,22.13
2019-03-16T07:07:57.760Z,21.43
2019-03-16T07:10:25.064Z,20.83
2019-03-16T07:12:52.396Z,19.43
2019-03-16T07:15:19.736Z,19.60
2019-03-16T07:17:47.091Z,20.43
2019-03-16T07:20:14.386Z,19.60
2019-03-16T07:22:41.678Z,20.63
2019-03-16T07:25:09.043Z,19.80
2019-03-16T07:27:36.355Z,21.00
2019-03-16T07:30:03.775Z,20.63
2019-03-16T07:32:31.042Z,20.13
2019-03-16T07:34:58.335Z,19.63
2019-03-16T07:37:25.776Z,20.00
2019-03-16T07:39:53.046Z,20.83
2019-03-16T07:42:20.314Z,20.53
2019-03-16T07:44:47.656Z,19.13
2019-03-16T07:47:14.976Z,17.30
2019-03-16T07:49:42.313Z,16.03
2019-03-16T07:52:09.623Z,16.33
2019-03-16T07:54:36.938Z,13.07
2019-03-16T07:57:04.267Z,13.20
2019-03-16T07:59:31.540Z,13.07
2019-03-16T08:01:58.908Z,13.47
2019-03-16T08:04:26.216Z,12.27
2019-03-16T08:06:53.833Z,13.93
2019-03-16T08:12:21.336Z,11.97
2019-03-16T08:14:50.338Z,11.10
2019-03-16T08:17:21.403Z,12.00
2019-03-16T08:19:55.569Z,11.80
2019-03-16T08:22:23.292Z,11.70
2019-03-16T08:24:50.629Z,11.43
2019-03-16T08:27:20.200Z,12.07
2019-03-16T08:29:47.511Z,11.67
2019-03-16T08:32:14.814Z,11.13
2019-03-16T08:34:42.149Z,10.90
2019-03-16T08:37:09.436Z,9.73
2019-03-16T08:39:36.743Z,13.40
2019-03-16T08:42:04.117Z,13.80
2019-03-16T08:44:31.410Z,10.80
2019-03-16T08:46:58.811Z,10.30
2019-03-16T08:49:26.524Z,11.10
2019-03-16T08:51:53.937Z,9.07
2019-03-16T08:54:21.230Z,8.13
2019-03-16T08:56:48.531Z,7.43
2019-03-16T08:59:15.936Z,7.90
2019-03-16T09:01:43.256Z,8.30
2019-03-16T09:04:10.559Z,8.37
2019-03-16T09:06:37.955Z,7.27
2019-03-16T09:09:06.975Z,5.17
2019-03-16T09:11:34.352Z,4.87
2019-03-16T09:14:01.701Z,4.17
2019-03-16T09:16:28.990Z,4.20
2019-03-16T09:18:56.263Z,4.10
2019-03-16T09:21:23.571Z,4.53
2019-03-16T09:23:50.917Z,4.20
2019-03-16T09:26:18.261Z,4.57
2019-03-16T09:28:45.615Z,4.70
2019-03-16T09:31:12.955Z,7.40
2019-03-16T09:33:40.366Z,6.13
2019-03-16T09:36:07.735Z,4.83
2019-03-16T09:38:35.116Z,4.40
2019-03-16T09:41:02.455Z,3.93
2019-03-16T09:43:29.811Z,3.50
2019-03-16T09:45:57.196Z,3.53
2019-03-16T09:48:24.517Z,3.70
2019-03-16T09:50:52.086Z,2.17
2019-03-16T09:53:19.442Z,2.20
2019-03-16T09:55:46.685Z,1.73
2019-03-16T09:58:14.034Z,3.27
2019-03-16T10:00:41.374Z,2.60
2019-03-16T10:03:08.694Z,2.30
2019-03-16T10:05:35.993Z,2.40
2019-03-16T10:08:03.259Z,2.17
2019-03-16T10:10:30.588Z,2.53
2019-03-16T10:12:58.453Z,2.40
2019-03-16T10:15:25.786Z,2.47
2019-03-16T10:17:53.074Z,2.47
2019-03-16T10:20:20.421Z,2.20
2019-03-16T10:22:47.713Z,2.43
2019-03-16T10:25:15.036Z,3.20
2019-03-16T10:27:42.397Z,3.77
2019-03-16T10:30:10.011Z,4.23
2019-03-16T10:32:37.382Z,3.53
2019-03-16T10:35:05.280Z,3.20
2019-03-16T10:37:32.599Z,3.00
2019-03-16T10:39:59.922Z,4.47
2019-03-16T10:42:27.234Z,4.80
2019-03-16T10:44:54.608Z,5.47
2019-03-16T10:47:21.912Z,4.73
2019-03-16T10:49:49.273Z,4.23
2019-03-16T10:52:16.573Z,3.10
2019-03-16T10:54:43.900Z,2.00
2019-03-16T10:57:11.234Z,1.60
2019-03-16T10:59:38.592Z,1.30
2019-03-16T11:02:06.996Z,1.20
2019-03-16T11:04:34.317Z,2.77
2019-03-16T11:07:01.716Z,4.33
2019-03-16T11:09:29.082Z,2.57
2019-03-16T11:11:56.391Z,1.00
2019-03-16T11:14:23.738Z,0.80
2019-03-16T11:16:51.096Z,0.77
2019-03-16T11:19:18.445Z,0.80
2019-03-16T11:21:45.821Z,0.53
2019-03-16T11:24:13.156Z,0.70
2019-03-16T11:26:40.507Z,0.60
2019-03-16T11:29:09.148Z,0.60
2019-03-16T11:31:36.741Z,0.90
2019-03-16T11:34:04.050Z,0.40
2019-03-16T11:36:31.481Z,0.60
2019-03-16T11:38:58.782Z,0.50
2019-03-16T11:41:26.186Z,0.40
2019-03-16T11:43:53.525Z,0.30
2019-03-16T11:46:21.885Z,0.60
2019-03-16T11:48:49.207Z,0.50
2019-03-16T11:51:16.583Z,0.50
2019-03-16T11:53:43.839Z,0.33
2019-03-16T11:56:17.846Z,0.30
2019-03-16T11:58:40.516Z,0.43
2019-03-16T12:01:07.931Z,0.40
2019-03-16T12:03:35.279Z,0.20
2019-03-16T12:06:02.634Z,0.30
2019-03-16T12:08:30.052Z,0.30
2019-03-16T12:10:57.461Z,0.37
2019-03-16T12:13:24.843Z,0.50
2019-03-16T12:15:52.184Z,0.30
2019-03-16T12:18:19.514Z,0.30
2019-03-16T12:20:46.925Z,0.20
2019-03-16T12:23:14.378Z,0.30
2019-03-16T12:25:41.924Z,0.30
2019-03-16T12:28:09.263Z,0.50
2019-03-16T12:30:36.702Z,0.50
2019-03-16T12:33:04.116Z,0.30
2019-03-16T12:35:31.510Z,0.40
2019-03-16T12:37:58.923Z,0.50
2019-03-16T12:40:26.327Z,0.40
2019-03-16T12:42:53.850Z,0.50
2019-03-16T12:45:21.387Z,0.40
2019-03-16T12:47:48.771Z,0.30
2019-03-16T12:50:16.211Z,0.23
2019-03-16T12:52:43.637Z,0.40
2019-03-16T12:55:11.131Z,0.20
2019-03-16T12:57:38.530Z,0.57
2019-03-16T13:00:07.476Z,0.43
2019-03-16T13:02:34.816Z,1.30
2019-03-16T13:05:02.235Z,0.30
2019-03-16T13:07:29.647Z,0.40
2019-03-16T13:09:57.043Z,0.37
2019-03-16T13:12:24.684Z,0.40
2019-03-16T13:14:52.175Z,0.57
2019-03-16T13:17:21.090Z,0.60
2019-03-16T13:19:48.468Z,0.50
2019-03-16T13:22:15.929Z,0.60
2019-03-16T13:24:43.511Z,0.43
2019-03-16T13:27:11.031Z,0.37
2019-03-16T13:29:38.503Z,0.40
2019-03-16T13:32:05.903Z,0.60
2019-03-16T13:34:33.459Z,0.30
2019-03-16T13:37:01.023Z,0.50
2019-03-16T13:39:28.488Z,0.70
2019-03-16T13:41:56.125Z,0.50
2019-03-16T13:44:23.636Z,0.70
2019-03-16T13:46:51.135Z,0.50
2019-03-16T13:49:18.690Z,0.70
2019-03-16T13:51:46.357Z,0.70
2019-03-16T13:54:14.148Z,0.47
2019-03-16T13:56:41.713Z,0.40
2019-03-16T13:59:09.237Z,0.50
2019-03-16T14:01:37.056Z,0.57
2019-03-16T14:04:04.891Z,0.43
2019-03-16T14:06:32.581Z,0.50
2019-03-16T14:09:00.381Z,0.60
2019-03-16T14:11:27.997Z,0.50
2019-03-16T14:13:55.551Z,0.30
2019-03-16T14:16:24.606Z,0.47
2019-03-16T14:18:52.171Z,0.60
2019-03-16T14:21:19.691Z,0.50
2019-03-16T14:23:47.369Z,0.60
2019-03-16T14:26:14.967Z,0.33
2019-03-16T14:28:42.523Z,0.30
2019-03-16T14:31:10.313Z,0.43
2019-03-16T14:33:37.935Z,0.40
2019-03-16T14:36:05.808Z,0.47
2019-03-16T14:38:33.514Z,0.60
2019-03-16T14:41:00.975Z,0.43
2019-03-16T14:43:28.691Z,0.60
2019-03-16T14:45:56.397Z,0.37
2019-03-16T14:48:24.372Z,0.30
2019-03-16T14:50:52.060Z,0.40
2019-03-16T14:53:19.813Z,0.60
2019-03-16T14:55:47.603Z,0.50
2019-03-16T14:58:15.194Z,0.60
2019-03-16T15:00:43.031Z,0.60
2019-03-16T15:03:10.697Z,0.77
2019-03-16T15:05:38.545Z,0.80
2019-03-16T15:08:06.346Z,0.70
2019-03-16T15:10:34.120Z,0.70
2019-03-16T15:13:01.840Z,0.50
2019-03-16T15:15:29.571Z,0.70
2019-03-16T15:17:57.335Z,0.90
2019-03-16T15:20:25.023Z,0.53
2019-03-16T15:22:53.594Z,0.73
2019-03-16T15:25:21.437Z,0.60
2019-03-16T15:27:49.090Z,0.43
2019-03-16T15:30:16.903Z,0.80
2019-03-16T15:32:44.704Z,1.00
2019-03-16T15:35:12.593Z,1.13
2019-03-16T15:37:40.333Z,1.53
2019-03-16T15:40:08.838Z,1.70
2019-03-16T15:42:36.416Z,1.90
2019-03-16T15:45:06.221Z,10.23
2019-03-16T15:47:33.893Z,3.23
2019-03-16T15:50:05.187Z,2.83
2019-03-16T15:52:32.893Z,1.97
2019-03-16T15:55:00.636Z,1.70
2019-03-16T15:57:28.390Z,1.30
2019-03-16T15:59:56.071Z,1.10
2019-03-16T16:02:26.535Z,0.90
2019-03-16T16:04:54.183Z,1.97
2019-03-16T16:07:21.811Z,0.97
2019-03-16T16:09:49.454Z,1.10
2019-03-16T16:12:17.103Z,1.50
2019-03-16T16:14:44.824Z,2.40
2019-03-16T16:17:12.680Z,1.33
2019-03-16T16:19:40.326Z,1.00
2019-03-16T16:22:09.214Z,1.00
2019-03-16T16:24:36.975Z,1.10
2019-03-16T16:27:04.870Z,1.33
2019-03-16T16:29:33.868Z,1.53
2019-03-16T16:32:01.449Z,1.43
2019-03-16T16:34:29.114Z,1.37
2019-03-16T16:36:56.719Z,1.10
2019-03-16T16:39:24.392Z,1.10
2019-03-16T16:41:51.993Z,0.83
2019-03-16T16:44:19.692Z,0.97
2019-03-16T16:46:47.290Z,1.00
2019-03-16T16:49:14.916Z,1.03
2019-03-16T16:51:42.589Z,0.97
2019-03-16T16:54:10.382Z,1.00
2019-03-16T16:56:38.099Z,1.17
2019-03-16T16:59:05.803Z,1.37
2019-03-16T17:01:33.844Z,0.83
2019-03-16T17:04:01.463Z,0.90
2019-03-16T17:06:28.992Z,0.80
2019-03-16T17:08:56.589Z,0.90
2019-03-16T17:11:26.216Z,0.87
2019-03-16T17:13:53.846Z,1.00
2019-03-16T17:16:21.568Z,0.70
2019-03-16T17:18:49.823Z,0.93
2019-03-16T17:21:17.428Z,0.70
2019-03-16T17:23:45.156Z,0.63
2019-03-16T17:26:12.937Z,1.47
2019-03-16T17:28:42.908Z,1.43
2019-03-16T17:31:12.461Z,1.30
2019-03-16T17:33:41.286Z,1.33
2019-03-16T17:36:09.020Z,1.27
2019-03-16T17:38:36.879Z,1.17
2019-03-16T17:41:04.628Z,1.30
2019-03-16T17:43:32.296Z,1.30
2019-03-16T17:45:59.922Z,1.23
2019-03-16T17:48:29.783Z,1.00
2019-03-16T17:50:57.217Z,1.03
2019-03-16T17:53:24.925Z,1.10
2019-03-16T17:55:52.551Z,1.30
2019-03-16T17:58:20.366Z,1.33
2019-03-16T18:00:48.091Z,1.20
2019-03-16T18:03:15.756Z,0.90
2019-03-16T18:05:43.521Z,0.70
2019-03-16T18:08:11.313Z,0.80
2019-03-16T18:10:38.966Z,0.70
2019-03-16T18:13:06.585Z,0.77
2019-03-16T18:15:34.245Z,0.83
2019-03-16T18:18:01.969Z,1.03
2019-03-16T18:20:29.640Z,0.73
2019-03-16T18:22:57.286Z,0.97
2019-03-16T18:25:25.026Z,0.90
2019-03-16T18:27:53.771Z,0.90
2019-03-16T18:30:21.497Z,0.90
2019-03-16T18:32:49.568Z,0.70
2019-03-16T18:35:17.422Z,1.13
2019-03-16T18:37:45.047Z,1.20
2019-03-16T18:40:13.245Z,1.10
2019-03-16T18:42:40.908Z,0.80
2019-03-16T18:45:21.665Z,0.80
2019-03-16T18:47:49.364Z,0.80
2019-03-16T18:50:17.213Z,0.90
2019-03-16T18:52:45.177Z,0.80
2019-03-16T18:55:12.887Z,1.53
2019-03-16T18:57:40.941Z,2.00
2019-03-16T19:00:11.136Z,1.87
2019-03-16T19:02:38.887Z,1.10
2019-03-16T19:05:07.258Z,1.50
2019-03-16T19:07:36.228Z,0.93
2019-03-16T19:10:05.344Z,0.83
2019-03-16T19:12:33.240Z,1.13
2019-03-16T19:15:01.015Z,0.90
2019-03-16T19:17:28.860Z,0.60
2019-03-16T19:19:56.668Z,1.53
2019-03-16T19:22:24.816Z,0.90
2019-03-16T19:24:52.982Z,1.10
2019-03-16T19:27:20.959Z,0.90
2019-03-16T19:29:49.533Z,1.10
2019-03-16T19:32:17.531Z,1.10
2019-03-16T19:34:48.205Z,1.30
2019-03-16T19:37:15.878Z,1.00
2019-03-16T19:39:43.799Z,0.90
2019-03-16T19:42:13.785Z,1.40
2019-03-16T19:44:41.506Z,1.27
2019-03-16T19:47:09.903Z,1.10
2019-03-16T19:49:38.679Z,1.30
2019-03-16T19:52:06.630Z,1.30
2019-03-16T19:54:34.244Z,1.40
2019-03-16T19:57:15.036Z,0.90
2019-03-16T19:59:31.639Z,1.07
2019-03-16T20:01:59.356Z,1.00
2019-03-16T20:04:36.072Z,1.30
2019-03-16T20:06:56.854Z,1.20
2019-03-16T20:09:24.715Z,1.70
2019-03-16T20:11:52.541Z,1.57
2019-03-16T20:14:20.528Z,2.00
2019-03-16T20:16:48.236Z,1.73
2019-03-16T20:19:15.918Z,1.87
2019-03-16T20:21:43.756Z,2.20
2019-03-16T20:24:11.417Z,1.93
2019-03-16T20:26:39.075Z,1.90
2019-03-16T20:29:08.030Z,2.10
2019-03-16T20:31:46.364Z,2.27
2019-03-16T20:34:07.621Z,2.03
2019-03-16T20:36:35.675Z,2.00
2019-03-16T20:39:05.209Z,2.10
2019-03-16T20:41:36.311Z,2.20
2019-03-16T20:44:02.768Z,2.30
2019-03-16T20:46:30.499Z,2.33
2019-03-16T20:48:58.522Z,2.30
2019-03-16T20:51:26.180Z,2.00
2019-03-16T20:53:56.647Z,1.97
2019-03-16T20:56:28.913Z,1.83
2019-03-16T20:58:57.326Z,2.43
2019-03-16T21:01:25.197Z,2.10
2019-03-16T21:03:52.823Z,2.30
2019-03-16T21:06:20.389Z,2.20
2019-03-16T21:08:48.135Z,2.03
2019-03-16T21:11:15.806Z,2.53
2019-03-16T21:13:43.411Z,2.80
2019-03-16T21:16:11.779Z,2.73
2019-03-16T21:18:39.731Z,2.30
2019-03-16T21:21:07.414Z,2.50
2019-03-16T21:23:35.269Z,3.17
2019-03-16T21:26:03.945Z,3.30
2019-03-16T21:28:31.559Z,2.33
2019-03-16T21:30:59.174Z,2.27
2019-03-16T21:33:29.732Z,1.80
2019-03-16T21:35:56.274Z,1.40
2019-03-16T21:38:23.876Z,1.93
2019-03-16T21:40:51.630Z,2.20
2019-03-16T21:43:19.476Z,2.50
2019-03-16T21:45:47.112Z,2.30
2019-03-16T21:48:15.056Z,2.80
2019-03-16T21:50:42.720Z,2.80
2019-03-16T21:53:10.231Z,1.87
2019-03-16T21:55:37.774Z,1.43
2019-03-16T21:58:05.233Z,1.43
2019-03-16T22:00:32.631Z,1.50
2019-03-16T22:03:00.089Z,2.40
2019-03-16T22:05:27.808Z,2.97
2019-03-16T22:07:55.253Z,3.23
2019-03-16T22:10:22.649Z,2.83
2019-03-16T22:12:50.437Z,1.77
2019-03-16T22:15:18.039Z,1.30
2019-03-16T22:17:45.420Z,1.20
2019-03-16T22:20:12.892Z,1.80
2019-03-16T22:22:40.242Z,2.20
2019-03-16T22:25:07.592Z,2.50
2019-03-16T22:27:34.936Z,2.33
2019-03-16T22:30:02.237Z,1.80
2019-03-16T22:32:29.578Z,2.33
2019-03-16T22:34:56.899Z,1.83
2019-03-16T22:37:24.196Z,2.00
2019-03-16T22:39:51.543Z,1.60
2019-03-16T22:42:18.836Z,1.90
2019-03-16T22:44:46.168Z,1.40
2019-03-16T22:47:13.443Z,1.90
2019-03-16T22:49:40.783Z,2.10
2019-03-16T22:52:08.067Z,1.70
2019-03-16T22:54:35.395Z,1.80
2019-03-16T22:57:02.720Z,2.07
2019-03-16T22:59:30.616Z,1.60
2019-03-16T23:01:57.917Z,1.80
2019-03-16T23:04:25.297Z,2.00
2019-03-16T23:06:52.635Z,1.93
2019-03-16T23:09:19.955Z,1.87
2019-03-16T23:11:47.276Z,1.83
2019-03-16T23:14:14.635Z,2.30
2019-03-16T23:16:42.003Z,2.00
2019-03-16T23:19:09.418Z,1.93
2019-03-16T23:21:36.690Z,2.00
2019-03-16T23:24:04.048Z,1.70
2019-03-16T23:26:38.251Z,2.00
2019-03-16T23:29:00.671Z,1.80
2019-03-16T23:31:27.932Z,1.97
2019-03-16T23:33:55.276Z,1.90
2019-03-16T23:36:22.615Z,2.07
2019-03-16T23:38:49.946Z,1.87
2019-03-16T23:41:17.282Z,1.60
2019-03-16T23:43:44.693Z,1.90
2019-03-16T23:46:12.000Z,1.90
2019-03-16T23:48:39.368Z,1.93
2019-03-16T23:51:06.657Z,2.03
2019-03-16T23:53:33.935Z,1.80
2019-03-16T23:56:01.298Z,1.60
2019-03-16T23:58:28.609Z,2.03
